createdAt,value
2019-04-21T00:00:15.087Z,7.00
2019-04-21T00:01:12.742Z,6.97
2019-04-21T00:02:14.821Z,7.00
2019-04-21T00:03:18.154Z,6.97
2019-04-21T00:04:27.306Z,7.00
2019-04-21T00:05:43.166Z,6.93
2019-04-21T00:06:32.445Z,6.90
2019-04-21T00:09:32.657Z,6.93
2019-04-21T00:10:33.521Z,6.86
2019-04-21T00:11:36.488Z,6.89
2019-04-21T00:12:28.331Z,6.87
2019-04-21T00:13:28.235Z,6.83
2019-04-21T00:14:23.722Z,6.90
2019-04-21T00:15:21.726Z,6.82
2019-04-21T00:16:14.104Z,6.90
2019-04-21T00:17:17.315Z,6.87
2019-04-21T00:18:13.598Z,6.87
2019-04-21T00:19:17.834Z,6.82
2019-04-21T00:20:21.331Z,6.95
2019-04-21T00:21:25.546Z,6.90
2019-04-21T00:22:23.754Z,6.87
2019-04-21T00:23:27.460Z,6.93
2019-04-21T00:24:25.213Z,6.89
2019-04-21T00:25:23.568Z,6.87
2019-04-21T00:26:27.857Z,6.93
2019-04-21T00:27:30.996Z,6.92
2019-04-21T00:28:39.099Z,6.92
2019-04-21T00:29:36.595Z,6.87
2019-04-21T00:30:35.472Z,6.95
2019-04-21T00:31:28.550Z,6.90
2019-04-21T00:32:25.651Z,6.86
2019-04-21T00:33:17.561Z,6.90
2019-04-21T00:34:13.222Z,6.83
2019-04-21T00:35:18.469Z,6.87
2019-04-21T00:36:18.583Z,6.90
2019-04-21T00:37:20.991Z,6.85
2019-04-21T00:38:34.271Z,6.85
2019-04-21T00:39:43.354Z,6.86
2019-04-21T00:40:39.257Z,6.87
2019-04-21T00:41:29.687Z,6.86
2019-04-21T00:42:29.840Z,6.87
2019-04-21T00:43:30.954Z,6.93
2019-04-21T00:44:25.663Z,6.95
2019-04-21T00:45:28.620Z,7.05
2019-04-21T00:46:31.198Z,7.05
2019-04-21T00:47:34.536Z,7.11
2019-04-21T00:48:36.543Z,7.10
2019-04-21T00:49:26.930Z,7.04
2019-04-21T00:50:40.500Z,7.07
2019-04-21T00:51:43.897Z,7.03
2019-04-21T00:52:46.243Z,7.04
2019-04-21T00:53:43.508Z,7.04
2019-04-21T00:54:44.335Z,7.03
2019-04-21T00:55:38.901Z,7.07
2019-04-21T00:56:34.446Z,6.93
2019-04-21T00:57:38.788Z,7.01
2019-04-21T00:58:33.268Z,7.01
2019-04-21T00:59:37.057Z,7.03
2019-04-21T01:00:32.432Z,7.04
2019-04-21T01:01:31.287Z,7.01
2019-04-21T01:02:41.404Z,7.08
2019-04-21T01:04:37.087Z,7.14
2019-04-21T01:05:37.552Z,7.14
2019-04-21T01:06:38.137Z,7.13
2019-04-21T01:07:36.029Z,7.03
2019-04-21T01:08:33.336Z,7.07
2019-04-21T01:09:29.059Z,7.01
2019-04-21T01:10:25.901Z,7.05
2019-04-21T01:11:33.018Z,6.97
2019-04-21T01:12:38.578Z,6.96
2019-04-21T01:13:52.090Z,6.92
2019-04-21T01:14:40.945Z,6.92
2019-04-21T01:15:37.279Z,6.89
2019-04-21T01:16:40.929Z,6.89
2019-04-21T01:17:38.558Z,6.83
2019-04-21T01:18:32.857Z,6.80
2019-04-21T01:19:33.663Z,6.82
2019-04-21T01:20:17.413Z,6.72
2019-04-21T01:21:14.260Z,6.70
2019-04-21T01:22:13.372Z,6.67
2019-04-21T01:23:14.628Z,6.71
2019-04-21T01:24:19.793Z,6.67
2019-04-21T01:25:22.877Z,6.59
2019-04-21T01:26:24.910Z,6.64
2019-04-21T01:27:27.504Z,6.60
2019-04-21T01:28:29.045Z,6.70
2019-04-21T01:29:39.140Z,6.70
2019-04-21T01:30:34.525Z,6.68
2019-04-21T01:31:28.261Z,6.74
2019-04-21T01:32:34.437Z,6.77
2019-04-21T01:33:38.503Z,6.75
2019-04-21T01:34:33.036Z,6.89
2019-04-21T01:35:32.984Z,6.92
2019-04-21T01:36:31.517Z,7.00
2019-04-21T01:37:39.950Z,6.89
2019-04-21T01:38:39.866Z,6.93
2019-04-21T01:39:44.810Z,6.92
2019-04-21T01:40:37.650Z,6.97
2019-04-21T01:41:39.704Z,6.90
2019-04-21T01:42:31.533Z,6.95
2019-04-21T01:43:38.407Z,6.90
2019-04-21T01:44:43.034Z,6.89
2019-04-21T01:45:34.164Z,6.90
2019-04-21T01:46:30.921Z,6.95
2019-04-21T01:47:31.393Z,6.89
2019-04-21T01:48:31.872Z,6.89
2019-04-21T01:49:28.463Z,6.92
2019-04-21T01:50:28.963Z,6.90
2019-04-21T01:51:28.377Z,6.89
2019-04-21T01:53:38.186Z,6.93
2019-04-21T01:54:35.134Z,6.89
2019-04-21T01:55:36.723Z,7.01
2019-04-21T01:56:34.029Z,7.07
2019-04-21T01:57:33.317Z,7.08
2019-04-21T01:58:25.702Z,7.04
2019-04-21T01:59:30.480Z,7.19
2019-04-21T02:00:32.791Z,7.11
2019-04-21T02:01:33.306Z,7.19
2019-04-21T02:02:36.359Z,7.10
2019-04-21T02:04:14.060Z,7.18
2019-04-21T02:04:41.820Z,7.19
2019-04-21T02:05:39.217Z,7.15
2019-04-21T02:06:37.795Z,7.10
2019-04-21T02:07:34.255Z,7.14
2019-04-21T02:08:31.348Z,7.14
2019-04-21T02:09:35.724Z,7.08
2019-04-21T02:10:40.306Z,7.10
2019-04-21T02:11:37.907Z,7.05
2019-04-21T02:12:40.071Z,7.03
2019-04-21T02:13:44.312Z,7.04
2019-04-21T02:14:41.476Z,7.04
2019-04-21T02:15:54.469Z,6.96
2019-04-21T02:16:39.199Z,7.00
2019-04-21T02:17:34.294Z,7.00
2019-04-21T02:18:33.333Z,6.92
2019-04-21T02:19:31.506Z,6.90
2019-04-21T02:20:26.836Z,6.95
2019-04-21T02:21:28.635Z,6.95
2019-04-21T02:22:46.340Z,6.89
2019-04-21T02:23:41.183Z,6.93
2019-04-21T02:24:42.644Z,6.83
2019-04-21T02:25:41.026Z,6.93
2019-04-21T02:26:47.446Z,6.85
2019-04-21T02:27:36.606Z,6.87
2019-04-21T02:28:42.839Z,6.86
2019-04-21T02:29:43.811Z,6.87
2019-04-21T02:30:59.938Z,6.86
2019-04-21T02:31:45.345Z,6.74
2019-04-21T02:32:48.315Z,6.77
2019-04-21T02:34:00.375Z,6.85
2019-04-21T02:35:52.634Z,6.77
2019-04-21T02:37:00.546Z,6.83
2019-04-21T02:37:53.541Z,6.74
2019-04-21T02:39:08.444Z,6.72
2019-04-21T02:39:48.992Z,6.74
2019-04-21T02:40:46.682Z,6.68
2019-04-21T02:41:47.402Z,6.74
2019-04-21T02:44:59.847Z,6.64
2019-04-21T02:45:50.696Z,6.67
2019-04-21T02:46:42.058Z,6.72
2019-04-21T02:48:04.477Z,6.80
2019-04-21T02:49:57.361Z,6.83
2019-04-21T02:52:01.684Z,6.86
2019-04-21T02:55:43.690Z,6.92
2019-04-21T02:56:56.987Z,6.89
2019-04-21T02:57:49.403Z,6.89
2019-04-21T02:58:51.225Z,6.92
2019-04-21T02:59:50.144Z,6.90
2019-04-21T03:00:48.583Z,6.90
2019-04-21T03:02:47.637Z,6.89
2019-04-21T03:03:50.592Z,6.82
2019-04-21T03:05:02.313Z,6.75
2019-04-21T03:06:51.749Z,6.70
2019-04-21T03:08:00.620Z,6.67
2019-04-21T03:08:50.093Z,6.70
2019-04-21T03:09:45.029Z,6.56
2019-04-21T03:11:49.045Z,6.62
2019-04-21T03:12:50.969Z,6.53
2019-04-21T03:13:46.988Z,6.56
2019-04-21T03:14:56.114Z,6.64
2019-04-21T03:15:53.460Z,6.62
2019-04-21T03:16:52.738Z,6.62
2019-04-21T03:17:51.385Z,6.57
2019-04-21T03:19:55.496Z,6.60
2019-04-21T03:20:56.726Z,6.62
2019-04-21T03:21:48.358Z,6.56
2019-04-21T03:23:07.809Z,6.52
2019-04-21T03:25:50.132Z,6.31
2019-04-21T03:28:52.180Z,6.19
2019-04-21T03:36:24.603Z,6.62
2019-04-21T03:37:47.769Z,6.60
2019-04-21T03:38:40.723Z,6.82
2019-04-21T03:39:54.930Z,6.83
2019-04-21T03:40:52.596Z,7.00
2019-04-21T03:42:07.358Z,7.04
2019-04-21T03:42:47.795Z,7.15
2019-04-21T03:44:45.642Z,7.29
2019-04-21T03:45:46.328Z,7.18
2019-04-21T03:46:47.990Z,7.26
2019-04-21T03:47:50.135Z,7.39
2019-04-21T03:52:58.883Z,7.47
2019-04-21T03:53:46.184Z,7.56
2019-04-21T03:55:03.332Z,7.70
2019-04-21T03:58:54.294Z,8.21
2019-04-21T03:59:54.984Z,8.21
2019-04-21T04:01:02.850Z,8.17
2019-04-21T04:01:48.611Z,8.20
2019-04-21T04:03:00.021Z,8.26
2019-04-21T04:06:03.383Z,8.52
2019-04-21T04:06:55.565Z,8.54
2019-04-21T04:07:59.234Z,8.59
2019-04-21T04:09:11.086Z,8.66
2019-04-21T04:10:52.009Z,8.63
2019-04-21T04:12:54.784Z,8.44
2019-04-21T04:15:59.825Z,8.57
2019-04-21T04:17:46.747Z,8.69
2019-04-21T04:18:53.240Z,8.54
2019-04-21T04:19:45.437Z,8.56
2019-04-21T04:20:51.856Z,8.72
2019-04-21T04:22:01.264Z,8.68
2019-04-21T04:23:53.457Z,8.95
2019-04-21T04:25:04.612Z,8.74
2019-04-21T04:25:53.657Z,9.05
2019-04-21T04:27:07.862Z,8.89
2019-04-21T04:28:02.191Z,8.92
2019-04-21T04:29:50.321Z,9.05
2019-04-21T04:31:00.710Z,9.03
2019-04-21T04:31:45.597Z,8.75
2019-04-21T04:33:59.924Z,8.99
2019-04-21T04:39:02.622Z,9.45
2019-04-21T04:39:48.801Z,9.54
2019-04-21T04:40:55.570Z,9.03
2019-04-21T04:42:12.540Z,8.64
2019-04-21T04:43:54.899Z,7.98
2019-04-21T04:45:56.499Z,8.32
2019-04-21T04:47:01.819Z,8.90
2019-04-21T04:47:51.279Z,9.05
2019-04-21T04:48:54.985Z,9.27
2019-04-21T04:51:16.290Z,9.49
2019-04-21T04:52:10.238Z,9.64
2019-04-21T04:52:45.685Z,9.56
2019-04-21T04:53:47.469Z,10.02
2019-04-21T04:54:55.023Z,10.00
2019-04-21T04:55:48.995Z,9.64
2019-04-21T04:56:56.409Z,9.24
2019-04-21T04:59:18.460Z,9.37
2019-04-21T04:59:49.870Z,9.73
2019-04-21T05:00:54.534Z,9.49
2019-04-21T05:02:52.283Z,9.59
2019-04-21T05:04:02.579Z,9.64
2019-04-21T05:04:56.750Z,9.47
2019-04-21T05:05:57.568Z,10.09
2019-04-21T05:08:07.619Z,10.80
2019-04-21T05:10:56.911Z,11.71
2019-04-21T05:12:51.105Z,11.45
2019-04-21T05:13:57.615Z,11.19
2019-04-21T05:14:57.063Z,11.33
2019-04-21T05:15:53.695Z,11.44
2019-04-21T05:19:10.266Z,11.70
2019-04-21T05:20:01.797Z,12.07
2019-04-21T05:20:52.278Z,11.68
2019-04-21T05:22:05.812Z,11.48
2019-04-21T05:22:42.299Z,11.63
2019-04-21T05:23:43.000Z,11.62
2019-04-21T05:24:41.920Z,12.15
2019-04-21T05:25:37.874Z,11.45
2019-04-21T05:26:39.040Z,11.53
2019-04-21T05:27:33.413Z,12.20
2019-04-21T05:28:35.540Z,12.21
2019-04-21T05:29:49.803Z,13.02
2019-04-21T05:30:50.847Z,13.45
2019-04-21T05:31:47.710Z,12.81
2019-04-21T05:32:45.151Z,12.76
2019-04-21T05:33:49.221Z,12.73
2019-04-21T05:34:35.652Z,12.68
2019-04-21T05:35:40.543Z,12.32
2019-04-21T05:36:45.976Z,11.86
2019-04-21T05:37:43.716Z,11.56
2019-04-21T05:38:37.947Z,12.17
2019-04-21T05:39:37.802Z,12.43
2019-04-21T05:40:35.915Z,12.14
2019-04-21T05:41:33.820Z,11.83
2019-04-21T05:42:35.391Z,11.83
2019-04-21T05:43:39.059Z,11.77
2019-04-21T05:44:52.749Z,11.86
2019-04-21T05:45:40.546Z,11.96
2019-04-21T05:46:53.486Z,12.18
2019-04-21T05:47:48.658Z,12.33
2019-04-21T05:48:45.705Z,12.03
2019-04-21T05:49:38.701Z,11.85
2019-04-21T05:50:40.318Z,11.53
2019-04-21T05:51:39.776Z,11.89
2019-04-21T05:52:38.192Z,11.71
2019-04-21T05:53:45.589Z,12.45
2019-04-21T05:54:52.982Z,12.08
2019-04-21T05:56:40.656Z,11.41
2019-04-21T05:57:46.309Z,11.53
2019-04-21T05:58:43.595Z,11.12
2019-04-21T05:59:43.570Z,11.52
2019-04-21T06:00:59.259Z,12.37
2019-04-21T06:01:46.741Z,11.81
2019-04-21T06:02:56.517Z,11.95
2019-04-21T06:03:53.167Z,11.99
2019-04-21T06:05:55.630Z,12.23
2019-04-21T06:06:48.092Z,11.27
2019-04-21T06:07:41.009Z,11.34
2019-04-21T06:08:44.966Z,11.77
2019-04-21T06:09:52.369Z,12.40
2019-04-21T06:10:48.827Z,12.12
2019-04-21T06:11:45.970Z,13.11
2019-04-21T06:12:52.073Z,12.66
2019-04-21T06:13:48.619Z,12.25
2019-04-21T06:14:52.097Z,12.54
2019-04-21T06:15:54.781Z,12.88
2019-04-21T06:16:49.850Z,12.20
2019-04-21T06:17:49.158Z,12.10
2019-04-21T06:18:50.586Z,11.52
2019-04-21T06:19:49.524Z,12.39
2019-04-21T06:20:47.737Z,12.36
2019-04-21T06:21:45.232Z,13.09
2019-04-21T06:22:46.533Z,13.42
2019-04-21T06:23:45.618Z,13.75
2019-04-21T06:25:08.944Z,14.12
2019-04-21T06:25:57.514Z,13.94
2019-04-21T06:27:11.609Z,13.68
2019-04-21T06:27:45.826Z,13.21
2019-04-21T06:28:45.321Z,13.52
2019-04-21T06:29:50.105Z,13.36
2019-04-21T06:30:57.998Z,13.23
2019-04-21T06:33:50.708Z,13.37
2019-04-21T06:35:06.259Z,13.46
2019-04-21T06:35:59.416Z,12.18
2019-04-21T06:36:54.717Z,12.28
2019-04-21T06:37:49.422Z,13.30
2019-04-21T06:38:54.288Z,13.60
2019-04-21T06:40:01.730Z,14.11
2019-04-21T06:40:50.186Z,14.01
2019-04-21T06:41:49.077Z,13.57
2019-04-21T06:42:50.262Z,12.76
2019-04-21T06:44:54.660Z,13.36
2019-04-21T06:46:00.458Z,13.70
2019-04-21T06:46:47.054Z,12.99
2019-04-21T06:47:53.978Z,13.11
2019-04-21T06:48:49.699Z,12.99
2019-04-21T06:49:43.276Z,13.50
2019-04-21T06:50:55.005Z,13.24
2019-04-21T06:51:42.958Z,12.70
2019-04-21T06:53:52.230Z,13.82
2019-04-21T06:54:50.735Z,14.63
2019-04-21T06:55:44.142Z,14.74
2019-04-21T06:56:47.905Z,14.43
2019-04-21T06:57:45.229Z,14.70
2019-04-21T06:58:47.994Z,15.66
2019-04-21T06:59:43.515Z,14.94
2019-04-21T07:00:42.441Z,15.18
2019-04-21T07:01:55.234Z,14.48
2019-04-21T07:02:51.928Z,14.34
2019-04-21T07:03:48.674Z,14.20
2019-04-21T07:04:51.476Z,13.45
2019-04-21T07:05:51.895Z,13.17
2019-04-21T07:06:48.236Z,13.94
2019-04-21T07:07:56.001Z,14.59
2019-04-21T07:08:52.924Z,14.45
2019-04-21T07:09:52.841Z,13.91
2019-04-21T07:10:43.511Z,13.64
2019-04-21T07:11:45.593Z,14.68
2019-04-21T07:12:44.904Z,14.77
2019-04-21T07:13:50.990Z,14.78
2019-04-21T07:14:47.914Z,14.15
2019-04-21T07:15:53.806Z,13.76
2019-04-21T07:16:51.054Z,13.47
2019-04-21T07:17:45.414Z,13.98
2019-04-21T07:18:53.709Z,13.64
2019-04-21T07:19:49.943Z,13.02
2019-04-21T07:20:50.451Z,13.61
2019-04-21T07:21:46.871Z,14.16
2019-04-21T07:22:51.212Z,14.01
2019-04-21T07:23:53.758Z,14.20
2019-04-21T07:24:49.240Z,14.86
2019-04-21T07:25:45.615Z,14.74
2019-04-21T07:26:51.352Z,14.48
2019-04-21T07:27:49.028Z,14.19
2019-04-21T07:29:00.116Z,14.23
2019-04-21T07:30:57.575Z,13.40
2019-04-21T07:31:55.649Z,13.57
2019-04-21T07:32:51.543Z,13.62
2019-04-21T07:35:06.595Z,14.08
2019-04-21T07:35:45.711Z,13.91
2019-04-21T07:36:56.170Z,14.15
2019-04-21T07:37:48.134Z,13.45
2019-04-21T07:38:46.936Z,13.21
2019-04-21T07:39:46.905Z,12.83
2019-04-21T07:40:42.698Z,12.83
2019-04-21T07:41:46.879Z,12.47
2019-04-21T07:42:46.948Z,12.83
2019-04-21T07:43:44.013Z,13.70
2019-04-21T07:44:44.225Z,13.65
2019-04-21T07:45:40.758Z,13.02
2019-04-21T07:46:41.594Z,13.50
2019-04-21T07:47:46.417Z,13.12
2019-04-21T07:48:49.759Z,13.78
2019-04-21T07:49:56.782Z,13.19
2019-04-21T07:50:46.642Z,13.24
2019-04-21T07:51:50.927Z,13.58
2019-04-21T07:52:49.012Z,14.03
2019-04-21T07:53:52.162Z,14.52
2019-04-21T07:55:01.658Z,14.85
2019-04-21T07:56:34.928Z,14.85
2019-04-21T07:57:45.728Z,14.86
2019-04-21T07:58:53.418Z,14.81
2019-04-21T08:00:02.734Z,14.77
2019-04-21T08:00:52.985Z,14.44
2019-04-21T08:01:52.002Z,14.89
2019-04-21T08:02:51.146Z,15.23
2019-04-21T08:03:45.809Z,15.51
2019-04-21T08:05:07.520Z,14.96
2019-04-21T08:05:53.655Z,14.97
2019-04-21T08:06:46.084Z,14.61
2019-04-21T08:07:51.900Z,14.70
2019-04-21T08:08:46.650Z,15.12
2019-04-21T08:09:46.751Z,15.27
2019-04-21T08:10:47.142Z,13.76
2019-04-21T08:11:46.274Z,13.83
2019-04-21T08:12:44.750Z,14.07
2019-04-21T08:13:48.804Z,14.28
2019-04-21T08:14:55.610Z,14.34
2019-04-21T08:16:07.734Z,13.73
2019-04-21T08:16:53.882Z,14.43
2019-04-21T08:17:47.229Z,15.63
2019-04-21T08:18:50.213Z,15.92
2019-04-21T08:19:42.801Z,15.32
2019-04-21T08:20:47.919Z,14.96
2019-04-21T08:21:54.619Z,15.33
2019-04-21T08:22:51.069Z,15.17
2019-04-21T08:23:48.362Z,14.93
2019-04-21T08:24:49.154Z,14.81
2019-04-21T08:26:53.454Z,15.37
2019-04-21T08:28:52.401Z,15.51
2019-04-21T08:29:51.836Z,15.57
2019-04-21T08:30:47.731Z,15.41
2019-04-21T08:32:00.661Z,15.57
2019-04-21T08:33:08.738Z,15.81
2019-04-21T08:33:56.466Z,15.05
2019-04-21T08:34:55.878Z,15.02
2019-04-21T08:36:51.101Z,15.78
2019-04-21T08:37:51.775Z,15.78
2019-04-21T08:38:48.460Z,15.63
2019-04-21T08:39:56.769Z,15.17
2019-04-21T08:40:51.769Z,14.85
2019-04-21T08:41:51.093Z,14.85
2019-04-21T08:42:52.139Z,14.55
2019-04-21T08:44:03.811Z,13.71
2019-04-21T08:46:01.921Z,13.85
2019-04-21T08:46:56.805Z,15.00
2019-04-21T08:47:55.230Z,14.99
2019-04-21T08:48:52.755Z,15.94
2019-04-21T08:49:47.521Z,16.98
2019-04-21T08:50:55.045Z,17.39
2019-04-21T08:51:53.899Z,16.25
2019-04-21T08:53:57.423Z,14.74
2019-04-21T08:54:51.671Z,15.15
2019-04-21T08:56:00.997Z,14.86
2019-04-21T08:56:49.702Z,14.96
2019-04-21T08:58:02.418Z,14.74
2019-04-21T08:58:50.892Z,15.23
2019-04-21T08:59:56.571Z,15.11
2019-04-21T09:00:55.116Z,14.48
2019-04-21T09:01:50.773Z,13.93
2019-04-21T09:02:46.558Z,14.41
2019-04-21T09:03:49.534Z,14.01
2019-04-21T09:04:50.376Z,13.21
2019-04-21T09:05:49.402Z,13.65
2019-04-21T09:06:58.836Z,14.62
2019-04-21T09:07:50.954Z,15.27
2019-04-21T09:08:53.310Z,14.55
2019-04-21T09:09:47.683Z,14.07
2019-04-21T09:10:47.238Z,14.37
2019-04-21T09:11:50.983Z,14.45
2019-04-21T09:12:49.148Z,14.61
2019-04-21T09:13:50.660Z,15.26
2019-04-21T09:14:50.260Z,14.99
2019-04-21T09:15:49.543Z,15.33
2019-04-21T09:16:47.246Z,15.18
2019-04-21T09:17:42.448Z,14.51
2019-04-21T09:18:41.965Z,14.89
2019-04-21T09:20:01.812Z,15.12
2019-04-21T09:20:55.281Z,14.77
2019-04-21T09:21:50.231Z,14.68
2019-04-21T09:22:50.569Z,14.61
2019-04-21T09:23:53.955Z,14.73
2019-04-21T09:24:51.614Z,14.78
2019-04-21T09:25:52.360Z,14.31
2019-04-21T09:26:49.704Z,13.47
2019-04-21T09:27:46.760Z,13.46
2019-04-21T09:28:45.130Z,14.33
2019-04-21T09:29:40.574Z,15.11
2019-04-21T09:30:39.532Z,15.26
2019-04-21T09:31:36.595Z,14.12
2019-04-21T09:32:34.491Z,13.89
2019-04-21T09:33:37.685Z,14.36
2019-04-21T09:34:37.017Z,15.11
2019-04-21T09:35:31.552Z,15.81
2019-04-21T09:36:38.967Z,16.06
2019-04-21T09:37:40.909Z,14.93
2019-04-21T09:38:37.117Z,14.61
2019-04-21T09:39:33.229Z,14.45
2019-04-21T09:40:37.293Z,14.87
2019-04-21T09:41:34.821Z,13.97
2019-04-21T09:42:38.648Z,14.36
2019-04-21T09:43:41.262Z,14.93
2019-04-21T09:44:37.205Z,14.67
2019-04-21T09:45:32.863Z,14.70
2019-04-21T09:46:35.475Z,14.82
2019-04-21T09:47:41.805Z,15.37
2019-04-21T09:48:44.282Z,15.80
2019-04-21T09:49:33.953Z,15.26
2019-04-21T09:50:34.416Z,15.85
2019-04-21T09:51:32.610Z,15.51
2019-04-21T09:52:40.899Z,14.51
2019-04-21T09:53:37.639Z,14.77
2019-04-21T09:54:37.056Z,14.04
2019-04-21T09:55:45.261Z,14.93
2019-04-21T09:56:43.629Z,14.77
2019-04-21T09:57:41.284Z,15.14
2019-04-21T09:58:39.829Z,14.82
2019-04-21T09:59:37.337Z,14.79
2019-04-21T10:00:44.795Z,15.44
2019-04-21T10:01:50.328Z,15.84
2019-04-21T10:02:40.029Z,16.26
2019-04-21T10:03:38.237Z,16.29
2019-04-21T10:04:33.582Z,15.84
2019-04-21T10:05:33.744Z,15.96
2019-04-21T10:06:33.004Z,15.55
2019-04-21T10:07:37.093Z,15.87
2019-04-21T10:08:34.054Z,15.78
2019-04-21T10:09:33.349Z,15.55
2019-04-21T10:10:34.123Z,15.35
2019-04-21T10:11:33.256Z,14.96
2019-04-21T10:12:33.119Z,15.36
2019-04-21T10:13:33.891Z,15.66
2019-04-21T10:14:33.074Z,14.81
2019-04-21T10:15:33.263Z,14.44
2019-04-21T10:16:34.191Z,14.68
2019-04-21T10:17:33.107Z,14.53
2019-04-21T10:18:33.773Z,14.74
2019-04-21T10:19:33.921Z,14.45
2019-04-21T10:20:33.170Z,14.16
2019-04-21T10:21:33.911Z,14.36
2019-04-21T10:22:33.286Z,14.36
2019-04-21T10:23:33.860Z,14.38
2019-04-21T10:24:34.016Z,15.25
2019-04-21T10:25:34.547Z,15.96
2019-04-21T10:26:33.441Z,16.05
2019-04-21T10:27:34.757Z,15.57
2019-04-21T10:28:35.046Z,16.02
2019-04-21T10:29:35.818Z,15.69
2019-04-21T10:30:34.737Z,14.89
2019-04-21T10:31:34.633Z,15.07
2019-04-21T10:32:34.459Z,15.81
2019-04-21T10:33:34.502Z,15.80
2019-04-21T10:34:34.871Z,16.17
2019-04-21T10:35:35.143Z,16.62
2019-04-21T10:36:35.036Z,16.26
2019-04-21T10:37:45.477Z,15.27
2019-04-21T10:38:41.024Z,14.86
2019-04-21T10:39:34.026Z,15.23
2019-04-21T10:40:36.884Z,16.08
2019-04-21T10:41:35.135Z,16.76
2019-04-21T10:42:35.354Z,17.02
2019-04-21T10:43:35.574Z,16.98
2019-04-21T10:44:34.716Z,16.08
2019-04-21T10:45:34.926Z,16.39
2019-04-21T10:46:35.004Z,15.80
2019-04-21T10:47:34.630Z,14.59
2019-04-21T10:48:36.001Z,14.22
2019-04-21T10:49:34.930Z,14.40
2019-04-21T10:50:34.860Z,15.07
2019-04-21T10:51:35.161Z,15.07
2019-04-21T10:52:35.921Z,15.51
2019-04-21T10:53:34.662Z,14.79
2019-04-21T10:54:49.212Z,14.56
2019-04-21T10:55:53.539Z,14.18
2019-04-21T10:56:38.811Z,14.38
2019-04-21T10:57:34.968Z,15.30
2019-04-21T10:58:36.166Z,15.43
2019-04-21T10:59:35.330Z,15.90
2019-04-21T11:00:36.348Z,16.40
2019-04-21T11:01:35.023Z,16.77
2019-04-21T11:02:35.068Z,16.39
2019-04-21T11:03:35.340Z,16.50
2019-04-21T11:04:38.309Z,17.17
2019-04-21T11:05:36.702Z,16.16
2019-04-21T11:06:36.756Z,15.98
2019-04-21T11:07:52.219Z,15.75
2019-04-21T11:08:40.966Z,16.02
2019-04-21T11:09:36.128Z,15.91
2019-04-21T11:10:36.000Z,15.18
2019-04-21T11:11:35.477Z,15.33
2019-04-21T11:12:37.674Z,15.76
2019-04-21T11:13:36.779Z,15.54
2019-04-21T11:14:35.699Z,16.24
2019-04-21T11:15:36.973Z,16.46
2019-04-21T11:16:35.703Z,16.18
2019-04-21T11:17:36.470Z,16.80
2019-04-21T11:18:35.999Z,16.47
2019-04-21T11:19:36.904Z,16.36
2019-04-21T11:20:37.152Z,16.29
2019-04-21T11:21:36.690Z,16.73
2019-04-21T11:22:38.175Z,17.14
2019-04-21T11:23:37.380Z,17.59
2019-04-21T11:24:36.765Z,17.50
2019-04-21T11:25:36.112Z,17.27
2019-04-21T11:26:36.154Z,17.56
2019-04-21T11:27:37.319Z,17.73
2019-04-21T11:28:36.821Z,17.54
2019-04-21T11:29:37.147Z,17.66
2019-04-21T11:30:36.337Z,17.66
2019-04-21T11:31:36.901Z,17.71
2019-04-21T11:32:37.097Z,17.75
2019-04-21T11:33:37.602Z,17.37
2019-04-21T11:34:36.805Z,16.99
2019-04-21T11:35:37.163Z,17.24
2019-04-21T11:36:37.480Z,17.30
2019-04-21T11:37:37.787Z,17.17
2019-04-21T11:38:54.244Z,17.17
2019-04-21T11:39:46.067Z,17.27
2019-04-21T11:40:38.022Z,17.84
2019-04-21T11:41:36.840Z,18.05
2019-04-21T11:42:37.778Z,18.67
2019-04-21T11:43:37.097Z,18.42
2019-04-21T11:44:37.336Z,18.71
2019-04-21T11:45:37.027Z,18.23
2019-04-21T11:46:38.282Z,18.13
2019-04-21T11:47:38.435Z,18.28
2019-04-21T11:48:37.161Z,18.49
2019-04-21T11:49:37.235Z,18.37
2019-04-21T11:50:37.254Z,18.03
2019-04-21T11:51:37.469Z,17.90
2019-04-21T11:52:37.351Z,17.94
2019-04-21T11:53:37.391Z,17.73
2019-04-21T11:54:37.438Z,16.97
2019-04-21T11:55:41.113Z,16.82
2019-04-21T11:56:38.826Z,17.65
2019-04-21T11:57:41.627Z,17.82
2019-04-21T11:58:37.625Z,18.00
2019-04-21T11:59:37.670Z,18.08
2019-04-21T12:00:37.797Z,18.31
2019-04-21T12:01:37.760Z,18.28
2019-04-21T12:02:37.807Z,18.36
2019-04-21T12:03:37.854Z,18.30
2019-04-21T12:04:39.181Z,18.49
2019-04-21T12:05:39.419Z,18.89
2019-04-21T12:06:43.669Z,19.09
2019-04-21T12:07:38.042Z,18.73
2019-04-21T12:08:43.031Z,17.97
2019-04-21T12:09:39.499Z,17.84
2019-04-21T12:10:38.482Z,18.26
2019-04-21T12:11:38.984Z,18.03
2019-04-21T12:12:39.227Z,18.03
2019-04-21T12:13:38.319Z,18.26
2019-04-21T12:14:39.621Z,18.39
2019-04-21T12:15:38.947Z,18.82
2019-04-21T12:16:39.158Z,18.61
2019-04-21T12:17:39.456Z,18.88
2019-04-21T12:18:38.841Z,19.38
2019-04-21T12:19:38.786Z,18.63
2019-04-21T12:20:39.687Z,18.74
2019-04-21T12:21:49.144Z,18.91
2019-04-21T12:22:39.102Z,17.90
2019-04-21T12:23:38.779Z,18.27
2019-04-21T12:24:39.677Z,18.08
2019-04-21T12:25:39.036Z,18.36
2019-04-21T12:26:40.156Z,18.55
2019-04-21T12:27:40.078Z,17.56
2019-04-21T12:28:39.806Z,18.00
2019-04-21T12:29:39.909Z,18.03
2019-04-21T12:30:39.868Z,17.60
2019-04-21T12:31:39.311Z,17.37
2019-04-21T12:32:40.167Z,17.94
2019-04-21T12:33:40.265Z,18.15
2019-04-21T12:34:39.728Z,18.27
2019-04-21T12:35:39.749Z,18.26
2019-04-21T12:36:40.005Z,17.79
2019-04-21T12:37:40.680Z,18.08
2019-04-21T12:38:46.925Z,17.95
2019-04-21T12:39:40.656Z,18.58
2019-04-21T12:40:39.569Z,18.76
2019-04-21T12:41:40.515Z,19.08
2019-04-21T12:42:41.719Z,18.88
2019-04-21T12:43:39.707Z,18.39
2019-04-21T12:44:39.756Z,18.96
2019-04-21T12:45:40.030Z,18.78
2019-04-21T12:46:40.180Z,18.61
2019-04-21T12:47:39.893Z,18.60
2019-04-21T12:48:40.063Z,19.11
2019-04-21T12:49:41.333Z,19.16
2019-04-21T12:50:41.572Z,19.17
2019-04-21T12:51:40.086Z,18.24
2019-04-21T12:52:40.173Z,18.63
2019-04-21T12:53:41.454Z,18.61
2019-04-21T12:54:41.694Z,19.01
2019-04-21T12:55:44.166Z,19.19
2019-04-21T12:56:41.234Z,18.12
2019-04-21T12:57:41.527Z,17.94
2019-04-21T12:58:41.575Z,17.41
2019-04-21T12:59:40.450Z,17.49
2019-04-21T13:00:40.909Z,17.20
2019-04-21T13:01:41.167Z,16.44
2019-04-21T13:02:40.587Z,16.49
2019-04-21T13:03:41.755Z,15.27
2019-04-21T13:04:42.052Z,15.29
2019-04-21T13:05:40.724Z,16.87
2019-04-21T13:06:41.535Z,17.79
2019-04-21T13:07:41.483Z,18.48
2019-04-21T13:08:49.816Z,18.61
2019-04-21T13:09:42.052Z,18.55
2019-04-21T13:10:42.186Z,18.89
2019-04-21T13:11:41.419Z,19.05
2019-04-21T13:12:41.757Z,19.16
2019-04-21T13:13:41.997Z,19.19
2019-04-21T13:14:42.112Z,18.48
2019-04-21T13:15:41.186Z,17.57
2019-04-21T13:16:41.394Z,16.86
2019-04-21T13:17:44.037Z,16.49
2019-04-21T13:18:41.702Z,16.36
2019-04-21T13:19:41.391Z,15.96
2019-04-21T13:20:42.254Z,15.63
2019-04-21T13:21:42.377Z,15.62
2019-04-21T13:22:41.964Z,15.45
2019-04-21T13:23:42.921Z,15.59
2019-04-21T13:24:42.122Z,15.52
2019-04-21T13:25:41.771Z,15.47
2019-04-21T13:26:48.291Z,15.43
2019-04-21T13:27:43.053Z,15.48
2019-04-21T13:28:42.589Z,15.50
2019-04-21T13:29:42.008Z,14.97
2019-04-21T13:30:42.313Z,14.74
2019-04-21T13:31:42.585Z,14.52
2019-04-21T13:32:43.038Z,14.25
2019-04-21T13:33:42.140Z,14.03
2019-04-21T13:34:42.199Z,14.22
2019-04-21T13:35:42.045Z,14.03
2019-04-21T13:36:43.458Z,13.93
2019-04-21T13:37:43.356Z,13.95
2019-04-21T13:38:55.834Z,14.22
2019-04-21T13:40:09.972Z,14.04
2019-04-21T13:40:57.008Z,14.40
2019-04-21T13:41:54.406Z,14.89
2019-04-21T13:42:47.605Z,15.04
2019-04-21T13:43:43.293Z,15.84
2019-04-21T13:44:42.417Z,16.28
2019-04-21T13:45:43.615Z,16.18
2019-04-21T13:46:43.018Z,16.05
2019-04-21T13:47:42.895Z,16.17
2019-04-21T13:48:42.636Z,16.13
2019-04-21T13:49:43.393Z,16.28
2019-04-21T13:50:43.654Z,16.43
2019-04-21T13:51:43.969Z,15.85
2019-04-21T13:52:42.787Z,16.50
2019-04-21T13:53:43.893Z,16.32
2019-04-21T13:54:43.274Z,16.10
2019-04-21T13:55:44.531Z,16.22
2019-04-21T13:56:42.907Z,16.03
2019-04-21T13:57:44.363Z,16.10
2019-04-21T13:58:44.227Z,16.05
2019-04-21T13:59:44.396Z,16.58
2019-04-21T14:00:43.075Z,16.34
2019-04-21T14:01:43.649Z,16.73
2019-04-21T14:02:44.682Z,16.54
2019-04-21T14:03:44.041Z,17.50
2019-04-21T14:04:43.329Z,17.90
2019-04-21T14:05:44.467Z,18.27
2019-04-21T14:06:44.588Z,18.61
2019-04-21T14:07:43.979Z,18.51
2019-04-21T14:08:45.281Z,18.48
2019-04-21T14:09:49.967Z,18.79
2019-04-21T14:10:43.966Z,18.70
2019-04-21T14:11:43.679Z,18.94
2019-04-21T14:12:44.504Z,18.33
2019-04-21T14:13:44.782Z,18.68
2019-04-21T14:14:44.143Z,18.60